KMKE/MKE METAR and TAF weather

Enter ICAO airport designator
Station Type Date Time Source
KMKE METAR 2019/08/25 01:52 UTC NOAA

KMKE 250152Z 06007KT 10SM FEW250 19/12 A3023 RMK AO2 SLP235 T01890122


Station Type Date Time Source
KMKE Decoded METAR 2019/08/25 01:52 UTC NOAA

Station name not available
Aug 24, 2019 - 09:52 PM EDT / 2019.08.25 0152 UTC
Wind: from the ENE (060 degrees) at 8 MPH (7 KT):0
Visibility: 10 mile(s):0
Sky conditions: mostly clear
Temperature: 66.0 F (18.9 C)
Dew Point: 54.0 F (12.2 C)
Relative Humidity: 65%
Pressure (altimeter): 30.23 in. Hg (1023 hPa)
ob: KMKE 250152Z 06007KT 10SM FEW250 19/12 A3023 RMK AO2 SLP235 T01890122
cycle: 2

Station Type Date Time Source
KMKE TAF 2019/08/24 21:54 UTC NOAA

TAF
AMD KMKE 242052Z 2421/2524 11012KT P6SM FEW050
FM242300 09007KT P6SM SKC
FM251500 12011KT P6SM SCT120

Example: see airport list